Flight Track Log - Related Links

Times and Time Zones

All times are in EDT time to prevent confusion due to time zone crossing. See the FFT361 flight status page for this flight to view local times or setup timezone preferences in your user account.

Time Position Orientation Groundspeed Altitude Reporting Facility
EDT Latitude Longitude Course Direction KTS MPH feet Rate Location/Type
Mon 08:48:15 AM 27.9500 -82.5500 204° Southwest 166 191 800  Level Tampa TRACON
Mon 08:49:39 AM 27.8833 -82.5833 204° Southwest 230 265 3,000 2,042 Climbing Tampa TRACON
Mon 08:50:39 AM 27.8833 -82.6500 270° West 281 323 5,700 2,444 Climbing Tampa TRACON
Mon 08:52:48 AM 28.0497 -82.6881 349° North 298 343 10,700 2,254 Climbing Jacksonville Center
Mon 08:53:48 AM 28.1436 -82.7089 349° North 320 368 12,800 2,300 Climbing Jacksonville Center
Mon 08:54:48 AM 28.2417 -82.7347 347° North 341 392 15,300 2,300 Climbing Jacksonville Center
Mon 08:55:48 AM 28.3419 -82.7558 350° North 355 409 17,400 1,850 Climbing Jacksonville Center
Mon 08:56:48 AM 28.4442 -82.7839 346° North 365 420 19,000 1,700 Climbing Jacksonville Center
Mon 08:57:48 AM 28.5528 -82.8100 348° North 376 433 20,800 1,750 Climbing Jacksonville Center
Mon 08:58:48 AM 28.6508 -82.8667 333° Northwest 386 444 22,500 1,600 Climbing Jacksonville Center
Mon 08:59:48 AM 28.7592 -82.9400 329° Northwest 386 444 24,000 1,450 Climbing Jacksonville Center
Mon 09:00:48 AM 28.8594 -83.0086 329° Northwest 405 466 25,400 1,750 Climbing Jacksonville Center
Mon 09:01:48 AM 28.9594 -83.0778 329° Northwest 416 479 27,500 2,500 Climbing Jacksonville Center
Mon 09:02:48 AM 29.0533 -83.1419 329° Northwest 416 479 30,400 1,950 Climbing Jacksonville Center
Mon 09:03:48 AM 29.1431 -83.2064 328° Northwest 396 456 31,400 750 Climbing Jacksonville Center
Mon 09:04:48 AM 29.2408 -83.2711 330° Northwest 396 456 31,900 500 Climbing Jacksonville Center
Mon 09:05:48 AM 29.3492 -83.3189 339° North 390 449 32,400 500 Climbing Jacksonville Center
Mon 09:06:48 AM 29.4367 -83.4125 317° Northwest 422 486 32,900 650 Climbing Jacksonville Center
Mon 09:07:48 AM 29.5031 -83.5153 307° West 422 486 33,700 750 Climbing Jacksonville Center
Mon 09:08:48 AM 29.5733 -83.6328 305° West 440 506 34,400 950 Climbing Jacksonville Center
Mon 09:09:48 AM 29.6456 -83.7528 305° West 451 519 35,600 800 Climbing Jacksonville Center
Mon 09:10:48 AM 29.7136 -83.8683 304° West 451 519 36,000 200 Climbing Jacksonville Center
Mon 09:11:48 AM 29.7839 -83.9814 306° West 444 511 36,000  Level Jacksonville Center
Mon 09:12:48 AM 29.8558 -84.0972 306° West 444 511 36,000  Level Jacksonville Center
Mon 09:13:48 AM 29.9297 -84.2228 304° West 444 511 36,000 -50 Level Jacksonville Center
Mon 09:14:48 AM 29.9994 -84.3389 305° West 444 511 35,900  Descending Jacksonville Center
Mon 09:15:48 AM 30.0692 -84.4528 305° West 439 505 36,000 50 Climbing Jacksonville Center
Mon 09:16:48 AM 30.1386 -84.5692 305° West 444 511 36,000  Level Jacksonville Center
Mon 09:17:48 AM 30.2081 -84.6833 305° West 444 511 36,000  Level Jacksonville Center
Mon 09:18:48 AM 30.2772 -84.8025 304° West 444 511 36,000  Level Jacksonville Center
Mon 09:19:48 AM 30.3444 -84.9192 304° West 444 511 36,000  Level Jacksonville Center
Mon 09:20:48 AM 30.4133 -85.0339 305° West 444 511 36,000  Level Jacksonville Center
Mon 09:21:48 AM 30.4825 -85.1511 304° West 444 511 36,000  Level Jacksonville Center
Mon 09:22:48 AM 30.5492 -85.2686 303° West 444 511 36,000  Level Jacksonville Center
Mon 09:23:48 AM 30.6181 -85.3836 305° West 444 511 36,000  Level Jacksonville Center
Mon 09:24:48 AM 30.6806 -85.4892 305° West 444 511 36,000 -50 Level Jacksonville Center
Mon 09:25:48 AM 30.7472 -85.6022 304° West 444 511 35,900 -50 Descending Jacksonville Center
Mon 09:26:48 AM 30.8133 -85.7200 303° West 444 511 35,900 50 Level Jacksonville Center
Mon 09:27:48 AM 30.8817 -85.8383 304° West 444 511 36,000 50 Climbing Jacksonville Center
Mon 09:28:48 AM 30.9500 -85.9544 304° West 444 511 36,000  Level Jacksonville Center
Mon 09:29:48 AM 31.0161 -86.0681 304° West 444 511 36,000  Level Jacksonville Center
Mon 09:30:48 AM 31.0800 -86.1867 302° West 444 511 36,000  Level Jacksonville Center
Mon 09:31:48 AM 31.1436 -86.3028 303° West 439 505 36,000  Level Jacksonville Center
Mon 09:32:48 AM 31.2114 -86.4194 304° West 434 499 36,000  Level Jacksonville Center
Mon 09:33:48 AM 31.2769 -86.5336 304° West 429 494 36,000  Level Jacksonville Center
Mon 09:36:06 AM 31.4358 -86.8108 304° West 429 494 36,000 182 Level Atlanta Center
Mon 09:37:06 AM 31.5000 -86.9272 303° West 429 494 36,600 500 Climbing Atlanta Center
Mon 09:38:06 AM 31.5644 -87.0317 306° West 429 494 37,000 200 Climbing Atlanta Center
Mon 09:39:06 AM 31.6283 -87.1461 303° West 429 494 37,000  Level Atlanta Center
Mon 09:40:06 AM 31.6939 -87.2775 300° West 422 486 37,000  Level Atlanta Center
Mon 09:41:06 AM 31.7578 -87.3825 306° West 427 491 37,000  Level Atlanta Center
Mon 09:42:06 AM 31.8253 -87.5022 304° West 433 498 37,000  Level Atlanta Center
Mon 09:43:06 AM 31.8908 -87.6222 303° West 433 498 37,000  Level Atlanta Center
Mon 09:44:06 AM 31.9561 -87.7425 303° West 433 498 37,000  Level Atlanta Center
Mon 09:48:07 AM 32.2172 -88.2261 303° West 452 520 37,000  Level Memphis Center
Mon 09:49:07 AM 32.2819 -88.3447 303° West 447 514 37,000  Level Memphis Center
Mon 09:50:07 AM 32.3444 -88.4639 302° West 442 509 37,000  Level Memphis Center
Mon 09:51:07 AM 32.4150 -88.5881 304° West 430 495 37,000  Level Memphis Center
Mon 09:52:07 AM 32.4772 -88.7050 302° West 417 480 37,000  Level Memphis Center
Mon 09:53:07 AM 32.5350 -88.8122 303° West 417 480 37,000  Level Memphis Center
Mon 09:54:07 AM 32.5989 -88.9319 302° West 423 487 37,000  Level Memphis Center
Mon 09:55:07 AM 32.6628 -89.0494 303° West 428 493 37,000 -150 Level Memphis Center
Mon 09:56:07 AM 32.7247 -89.1694 302° West 434 499 36,700 -400 Descending Memphis Center
Mon 09:57:07 AM 32.7883 -89.2897 302° West 434 499 36,200 -350 Descending Memphis Center
Mon 09:58:07 AM 32.8497 -89.4053 302° West 429 494 36,000 -100 Descending Memphis Center
Mon 09:59:07 AM 32.9114 -89.5233 302° West 422 486 36,000  Level Memphis Center
Mon 10:00:07 AM 32.9747 -89.6392 303° West 422 486 36,000  Level Memphis Center
Mon 10:01:07 AM 33.0378 -89.7625 301° West 423 487 36,000  Level Memphis Center
Mon 10:02:07 AM 33.1072 -89.8958 302° West 432 497 36,000  Level Memphis Center
Mon 10:03:07 AM 33.1661 -90.0172 300° West 432 497 36,000  Level Memphis Center
Mon 10:04:07 AM 33.2269 -90.1336 302° West 427 491 36,000  Level Memphis Center
Mon 10:05:07 AM 33.2897 -90.2553 302° West 427 491 36,000  Level Memphis Center
Mon 10:07:07 AM 33.4108 -90.4942 301° West 423 487 36,000  Level Memphis Center
Mon 10:08:07 AM 33.4711 -90.6136 301° West 423 487 36,000  Level Memphis Center
Mon 10:09:07 AM 33.5314 -90.7311 302° West 423 487 36,000  Level Memphis Center
Mon 10:10:07 AM 33.5894 -90.8508 300° West 423 487 36,000 150 Level Memphis Center
Mon 10:11:07 AM 33.6517 -90.9711 302° West 423 487 36,300 500 Climbing Memphis Center
Mon 10:12:07 AM 33.7136 -91.0889 302° West 423 487 37,000 700 Climbing Memphis Center
Mon 10:13:07 AM 33.7692 -91.2042 300° West 430 495 37,700 500 Climbing Memphis Center
Mon 10:14:07 AM 33.8350 -91.3400 300° West 425 489 38,000 150 Climbing Memphis Center
Mon 10:15:07 AM 33.8967 -91.4608 302° West 425 489 38,000  Level Memphis Center
Mon 10:16:07 AM 33.9581 -91.5867 300° West 432 497 38,000  Level Memphis Center
Mon 10:17:07 AM 34.0133 -91.6953 302° West 426 490 38,000  Level Memphis Center
Mon 10:18:07 AM 34.0786 -91.8192 302° West 426 490 38,000  Level Memphis Center
Mon 10:19:07 AM 34.1397 -91.9483 300° West 426 490 38,000  Level Memphis Center
Mon 10:20:07 AM 34.1986 -92.0750 299° West 426 490 38,000  Level Memphis Center
Mon 10:21:07 AM 34.2572 -92.1967 300° West 426 490 38,000  Level Memphis Center
Mon 10:22:07 AM 34.3181 -92.3211 301° West 426 490 38,000  Level Memphis Center
Mon 10:23:07 AM 34.3808 -92.4458 301° West 426 490 38,000  Level Memphis Center
Mon 10:24:07 AM 34.4392 -92.5708 300° West 426 490 38,000  Level Memphis Center
Mon 10:25:07 AM 34.4994 -92.6958 300° West 426 490 38,000  Level Memphis Center
Mon 10:26:07 AM 34.5575 -92.8183 300° West 426 490 38,000  Level Memphis Center
Mon 10:27:07 AM 34.6175 -92.9439 300° West 426 490 38,000  Level Memphis Center
Mon 10:28:07 AM 34.6756 -93.0642 300° West 426 490 38,000  Level Memphis Center
Mon 10:29:07 AM 34.7353 -93.1925 300° West 426 490 38,000  Level Memphis Center
Mon 10:30:07 AM 34.7950 -93.3183 300° West 426 490 38,000 50 Level Memphis Center
Mon 10:31:07 AM 34.8525 -93.4419 300° West 426 490 38,100  Climbing Memphis Center
Mon 10:32:07 AM 34.9119 -93.5708 299° West 426 490 38,000 -50 Descending Memphis Center
Mon 10:33:07 AM 34.9711 -93.6944 300° West 426 490 38,000  Level Memphis Center
Mon 10:34:07 AM 35.0306 -93.8136 301° West 426 490 38,000  Level Memphis Center
Mon 10:35:07 AM 35.0856 -93.9350 299° West 421 484 38,000  Level Memphis Center
Mon 10:36:07 AM 35.1403 -94.0567 299° West 421 484 38,000  Level Memphis Center
Mon 10:37:07 AM 35.1950 -94.1786 299° West 421 484 38,000  Level Memphis Center
Mon 10:38:07 AM 35.2517 -94.2981 300° West 416 479 38,000  Level Memphis Center
Mon 10:39:07 AM 35.3042 -94.4178 298° West 416 479 38,000  Level Memphis Center
Mon 10:40:07 AM 35.3608 -94.5375 300° West 409 471 38,000  Level Memphis Center
Mon 10:42:14 AM 35.4703 -94.7797 299° West 409 471 38,000  Level Kansas City Center
Mon 10:43:16 AM 35.5258 -94.9039 299° West 411 473 38,000  Level Kansas City Center
Mon 10:44:18 AM 35.5944 -95.0525 300° West 413 475 38,000 48 Level Kansas City Center
Mon 10:45:20 AM 35.6508 -95.1783 299° West 417 480 38,100  Climbing Kansas City Center
Mon 10:46:22 AM 35.7064 -95.3031 299° West 416 479 38,000 -48 Descending Kansas City Center
Mon 10:47:24 AM 35.7619 -95.4292 299° West 416 479 38,000  Level Kansas City Center
Mon 10:48:26 AM 35.8178 -95.5550 299° West 416 479 38,000  Level Kansas City Center
Mon 10:49:28 AM 35.8733 -95.6811 299° West 416 479 38,000  Level Kansas City Center
Mon 10:50:30 AM 35.9281 -95.8078 298° West 416 479 38,000  Level Kansas City Center
Mon 10:51:32 AM 35.9839 -95.9333 299° West 415 478 38,000  Level Kansas City Center
Mon 10:52:34 AM 36.0489 -96.0817 298° West 410 472 38,000  Level Kansas City Center
Mon 10:53:36 AM 36.1022 -96.2056 298° West 409 471 38,000  Level Kansas City Center
Mon 10:54:38 AM 36.1294 -96.3394 284° West 407 468 38,000  Level Kansas City Center
Mon 10:55:40 AM 36.1392 -96.4753 275° West 399 459 38,000  Level Kansas City Center
Mon 10:56:42 AM 36.1486 -96.6092 275° West 395 455 38,000  Level Kansas City Center
Mon 10:57:44 AM 36.1589 -96.7431 275° West 392 451 38,000  Level Kansas City Center
Mon 10:58:47 AM 36.1717 -96.9022 276° West 391 450 38,000  Level Kansas City Center
Mon 10:59:49 AM 36.1800 -97.0353 274° West 391 450 38,000  Level Kansas City Center
Mon 11:00:51 AM 36.1897 -97.1689 275° West 391 450 38,000  Level Kansas City Center
Mon 11:01:53 AM 36.1992 -97.3042 275° West 395 455 38,000  Level Kansas City Center
Mon 11:02:55 AM 36.2078 -97.4397 275° West 397 457 38,000  Level Kansas City Center
Mon 11:03:57 AM 36.2172 -97.5747 275° West 397 457 38,000  Level Kansas City Center
Mon 11:04:59 AM 36.2272 -97.7364 274° West 396 456 38,000  Level Kansas City Center
Mon 11:06:01 AM 36.2347 -97.8686 274° West 394 453 38,000  Level Kansas City Center
Mon 11:07:03 AM 36.2442 -98.0017 275° West 391 450 38,000  Level Kansas City Center
Mon 11:08:05 AM 36.2528 -98.1522 274° West 391 450 38,000  Level Kansas City Center
Mon 11:09:07 AM 36.2611 -98.2850 274° West 387 445 38,000  Level Kansas City Center
Mon 11:10:10 AM 36.2686 -98.4164 274° West 385 443 38,000  Level Kansas City Center
Mon 11:11:12 AM 36.2756 -98.5458 274° West 380 437 38,000  Level Kansas City Center
Mon 11:12:14 AM 36.2833 -98.6758 274° West 379 436 38,000  Level Kansas City Center
Mon 11:13:16 AM 36.2908 -98.8067 274° West 380 437 38,000  Level Kansas City Center
Mon 11:14:18 AM 36.3278 -98.9581 287° West 385 443 38,000  Level Kansas City Center
Mon 11:15:20 AM 36.3731 -99.0789 295° West 389 448 38,000  Level Kansas City Center
Mon 11:16:22 AM 36.4172 -99.2017 294° West 390 449 38,000  Level Kansas City Center
Mon 11:17:24 AM 36.4617 -99.3253 294° West 393 452 38,000  Level Kansas City Center
Mon 11:18:26 AM 36.5067 -99.4481 295° West 391 450 38,000  Level Kansas City Center
Mon 11:19:28 AM 36.5508 -99.5714 294° West 392 451 38,000  Level Kansas City Center
Mon 11:20:30 AM 36.6042 -99.7186 294° West 390 449 38,000  Level Kansas City Center
Mon 11:21:32 AM 36.6483 -99.8425 294° West 391 450 38,000  Level Kansas City Center
Mon 11:22:34 AM 36.6928 -99.9642 295° West 388 447 38,000  Level Kansas City Center
Mon 11:23:36 AM 36.7369 -100.0872 294° West 388 447 38,000  Level Kansas City Center
Mon 11:24:38 AM 36.7803 -100.2139 293° West 387 445 38,000  Level Kansas City Center
Mon 11:25:40 AM 36.8297 -100.3503 294° West 386 444 38,000  Level Kansas City Center
Mon 11:26:42 AM 36.8706 -100.4694 293° West 388 447 38,000 48 Level Kansas City Center
Mon 11:27:44 AM 36.9183 -100.6075 293° West 388 447 38,100  Climbing Kansas City Center
Mon 11:28:46 AM 36.9594 -100.7258 294° West 387 445 38,000 -48 Descending Kansas City Center
Mon 11:29:48 AM 37.0069 -100.8625 294° West 384 442 38,000  Level Kansas City Center
Mon 11:30:50 AM 37.0531 -100.9783 297° West 387 445 38,000  Level Kansas City Center
Mon 11:31:52 AM 37.1203 -101.0806 310° West 393 452 38,000  Level Kansas City Center
Mon 11:32:54 AM 37.2008 -101.1983 311° West 396 456 38,000  Level Kansas City Center
Mon 11:33:56 AM 37.2694 -101.3006 310° West 398 458 38,000  Level Kansas City Center
Mon 11:34:58 AM 37.3511 -101.4194 311° West 399 459 38,000  Level Kansas City Center
Mon 11:36:00 AM 37.4211 -101.5228 310° West 402 463 38,000  Level Kansas City Center
Mon 11:37:02 AM 37.5025 -101.6428 311° West 402 463 38,000  Level Kansas City Center
Mon 11:38:04 AM 37.5725 -101.7464 310° West 403 464 38,000  Level Kansas City Center
Mon 11:39:06 AM 37.6517 -101.8653 310° West 399 459 38,000  Level Kansas City Center
Mon 11:40:08 AM 37.7214 -101.9692 310° West 402 463 38,000  Level Kansas City Center
Mon 11:41:10 AM 37.7903 -102.0728 310° West 402 463 38,000  Level Kansas City Center
Mon 11:42:12 AM 37.8736 -102.1922 311° West 404 465 38,000 48 Level Kansas City Center
Mon 11:43:14 AM 37.9481 -102.2928 313° West 407 468 38,100 -48 Climbing Kansas City Center
Mon 11:44:16 AM 38.0358 -102.4092 314° West 409 471 37,900 -297 Descending Kansas City Center
Mon 11:44:55 AM 38.0839 -102.4775 312° West 406 467 37,600 -416 Descending Denver Center
Mon 11:45:57 AM 38.1586 -102.5803 313° West 412 474 37,200 -581 Descending Denver Center
Mon 11:46:59 AM 38.2483 -102.6994 314° West 419 482 36,400 -581 Descending Denver Center
Mon 11:48:01 AM 38.3228 -102.8042 312° West 418 481 36,000 -194 Descending Denver Center
Mon 11:49:03 AM 38.4131 -102.9269 313° West 424 488 36,000  Level Denver Center
Mon 11:50:06 AM 38.4889 -103.0347 312° West 426 490 36,000 -144 Level Denver Center
Mon 11:51:08 AM 38.5750 -103.1544 313° West 427 491 35,700 -387 Descending Denver Center
Mon 11:52:10 AM 38.6544 -103.2656 312° West 426 490 35,200 -774 Descending Denver Center
Mon 11:53:12 AM 38.7358 -103.3764 313° West 427 491 34,100 -1,103 Descending Denver Center
Mon 11:54:26 AM 38.8197 -103.4972 312° West 434 499 32,700 -1,985 Descending Denver Center
Mon 11:55:28 AM 38.9283 -103.6508 312° West 431 496 29,600 -2,613 Descending Denver Center
Mon 11:56:30 AM 39.0064 -103.7625 312° West 422 486 27,300 -2,226 Descending Denver Center
Mon 11:57:32 AM 39.0839 -103.8708 313° West 415 478 25,000 -2,177 Descending Denver Center
Mon 11:58:34 AM 39.1569 -103.9769 312° West 400 460 22,800 -1,694 Descending Denver Center
Mon 11:59:36 AM 39.2292 -104.0800 312° West 391 450 21,500 -1,403 Descending Denver Center
Mon 12:00:38 PM 39.3339 -104.1847 322° Northwest 404 465 19,900 -1,694 Descending Denver Center
Mon 12:01:40 PM 39.4233 -104.2622 326° Northwest 390 449 18,000 -1,984 Descending Denver Center
Mon 12:02:42 PM 39.5144 -104.3319 329° Northwest 381 438 15,800 -1,645 Descending Denver Center
Mon 12:03:44 PM 39.6086 -104.4117 327° Northwest 375 432 14,600 -1,056 Descending Denver Center
Mon 12:04:47 PM 39.6981 -104.4833 328° Northwest 380 437 13,600 -960 Descending Denver Center
Mon 12:05:49 PM 39.8003 -104.5225 344° North 354 407 12,600 -1,065 Descending Denver Center
Mon 12:06:51 PM 39.8878 -104.5219 360° North 322 371 11,400 -1,065 Descending Denver Center
Mon 12:07:53 PM 39.9728 -104.5211 360° North 283 326 10,400 -1,258 Descending Denver Center
Mon 12:08:55 PM 40.0239 -104.5633 328° Northwest 239 275 8,800 -1,500 Descending Denver Center
Mon 12:09:57 PM 40.0256 -104.6517 271° West 226 260 7,300 -968 Descending Denver Center
Mon 12:10:59 PM 39.9781 -104.6856 209° Southwest 198 228 6,800 -629 Descending Denver Center
Mon 12:12:01 PM 39.9275 -104.6867 181° South 171 197 6,000 -726 Descending Denver Center
Mon 12:13:03 PM 39.8919 -104.6869 180° South 133 153 5,300 -677 Descending Denver Center

Login

Don't have an account? Register now (free) for customized features, flight alerts, and more!